sensor_id;sensor_type;location;lat;lon;timestamp;temperature;humidity
76293;DHT22;65101;51.140;4.088;2022-11-21T00:03:39;19.60;52.60
76293;DHT22;65101;51.140;4.088;2022-11-21T00:06:04;19.60;52.60
76293;DHT22;65101;51.140;4.088;2022-11-21T00:08:30;19.60;52.50
76293;DHT22;65101;51.140;4.088;2022-11-21T00:10:58;19.60;53.30
76293;DHT22;65101;51.140;4.088;2022-11-21T00:13:24;19.60;52.30
76293;DHT22;65101;51.140;4.088;2022-11-21T00:15:49;19.50;52.90
76293;DHT22;65101;51.140;4.088;2022-11-21T00:18:15;19.50;53.00
76293;DHT22;65101;51.140;4.088;2022-11-21T00:20:42;19.50;53.20
76293;DHT22;65101;51.140;4.088;2022-11-21T00:23:08;19.50;52.80
76293;DHT22;65101;51.140;4.088;2022-11-21T00:25:35;19.50;52.90
76293;DHT22;65101;51.140;4.088;2022-11-21T00:28:01;19.50;53.00
76293;DHT22;65101;51.140;4.088;2022-11-21T00:30:27;19.40;53.20
76293;DHT22;65101;51.140;4.088;2022-11-21T00:32:52;19.40;53.10
76293;DHT22;65101;51.140;4.088;2022-11-21T00:35:18;19.40;52.70
76293;DHT22;65101;51.140;4.088;2022-11-21T00:37:44;19.40;53.30
76293;DHT22;65101;51.140;4.088;2022-11-21T00:40:10;19.40;53.70
76293;DHT22;65101;51.140;4.088;2022-11-21T00:42:36;19.30;52.70
76293;DHT22;65101;51.140;4.088;2022-11-21T00:45:02;19.40;53.40
76293;DHT22;65101;51.140;4.088;2022-11-21T00:47:27;19.30;53.00
76293;DHT22;65101;51.140;4.088;2022-11-21T00:49:53;19.30;52.80
76293;DHT22;65101;51.140;4.088;2022-11-21T00:52:19;19.30;53.30
76293;DHT22;65101;51.140;4.088;2022-11-21T00:54:44;19.30;53.00
76293;DHT22;65101;51.140;4.088;2022-11-21T00:57:10;19.30;53.40
76293;DHT22;65101;51.140;4.088;2022-11-21T00:59:36;19.30;53.50
76293;DHT22;65101;51.140;4.088;2022-11-21T01:02:01;19.30;53.90
76293;DHT22;65101;51.140;4.088;2022-11-21T01:04:35;19.20;53.20
76293;DHT22;65101;51.140;4.088;2022-11-21T01:07:00;19.20;53.00
76293;DHT22;65101;51.140;4.088;2022-11-21T01:09:26;19.20;53.50
76293;DHT22;65101;51.140;4.088;2022-11-21T01:11:53;19.20;53.70
76293;DHT22;65101;51.140;4.088;2022-11-21T01:14:19;19.20;53.40
76293;DHT22;65101;51.140;4.088;2022-11-21T01:16:45;19.10;53.50
76293;DHT22;65101;51.140;4.088;2022-11-21T01:19:11;19.10;53.80
76293;DHT22;65101;51.140;4.088;2022-11-21T01:21:36;19.10;53.90
76293;DHT22;65101;51.140;4.088;2022-11-21T01:24:02;19.10;54.00
76293;DHT22;65101;51.140;4.088;2022-11-21T01:26:29;19.10;53.80
76293;DHT22;65101;51.140;4.088;2022-11-21T01:28:56;19.10;53.90
76293;DHT22;65101;51.140;4.088;2022-11-21T01:31:25;19.00;53.90
76293;DHT22;65101;51.140;4.088;2022-11-21T01:33:52;19.00;53.80
76293;DHT22;65101;51.140;4.088;2022-11-21T01:36:26;19.00;53.30
76293;DHT22;65101;51.140;4.088;2022-11-21T01:38:54;19.00;53.80
76293;DHT22;65101;51.140;4.088;2022-11-21T01:41:26;19.00;53.60
76293;DHT22;65101;51.140;4.088;2022-11-21T01:43:54;19.00;53.80
76293;DHT22;65101;51.140;4.088;2022-11-21T01:46:20;19.00;53.70
76293;DHT22;65101;51.140;4.088;2022-11-21T01:48:54;18.90;54.20
76293;DHT22;65101;51.140;4.088;2022-11-21T01:54:06;18.90;54.10
76293;DHT22;65101;51.140;4.088;2022-11-21T01:56:41;18.90;53.70
76293;DHT22;65101;51.140;4.088;2022-11-21T01:59:11;18.90;53.70
76293;DHT22;65101;51.140;4.088;2022-11-21T02:01:39;18.90;54.00
76293;DHT22;65101;51.140;4.088;2022-11-21T02:04:06;18.90;53.90
76293;DHT22;65101;51.140;4.088;2022-11-21T02:06:33;18.80;54.10
76293;DHT22;65101;51.140;4.088;2022-11-21T02:09:02;18.90;54.20
76293;DHT22;65101;51.140;4.088;2022-11-21T02:11:38;18.80;54.30
76293;DHT22;65101;51.140;4.088;2022-11-21T02:14:05;18.80;54.30
76293;DHT22;65101;51.140;4.088;2022-11-21T02:16:32;18.80;54.30
76293;DHT22;65101;51.140;4.088;2022-11-21T02:18:59;18.80;53.80
76293;DHT22;65101;51.140;4.088;2022-11-21T02:21:52;18.80;54.10
76293;DHT22;65101;51.140;4.088;2022-11-21T02:24:55;18.80;54.50
76293;DHT22;65101;51.140;4.088;2022-11-21T02:27:20;18.80;54.10
76293;DHT22;65101;51.140;4.088;2022-11-21T02:29:46;18.80;54.40
76293;DHT22;65101;51.140;4.088;2022-11-21T02:32:20;18.70;54.20
76293;DHT22;65101;51.140;4.088;2022-11-21T02:34:46;18.70;54.60
76293;DHT22;65101;51.140;4.088;2022-11-21T02:37:12;18.70;54.20
76293;DHT22;65101;51.140;4.088;2022-11-21T02:39:38;18.70;54.60
76293;DHT22;65101;51.140;4.088;2022-11-21T02:42:24;18.70;54.50
76293;DHT22;65101;51.140;4.088;2022-11-21T02:47:34;18.70;54.40
76293;DHT22;65101;51.140;4.088;2022-11-21T02:52:31;18.70;54.50
76293;DHT22;65101;51.140;4.088;2022-11-21T02:54:57;18.70;54.50
76293;DHT22;65101;51.140;4.088;2022-11-21T02:57:23;18.60;54.60
76293;DHT22;65101;51.140;4.088;2022-11-21T02:59:48;18.60;54.80
76293;DHT22;65101;51.140;4.088;2022-11-21T03:02:14;18.60;54.40
76293;DHT22;65101;51.140;4.088;2022-11-21T03:04:40;18.60;54.60
76293;DHT22;65101;51.140;4.088;2022-11-21T03:07:05;18.60;54.20
76293;DHT22;65101;51.140;4.088;2022-11-21T03:09:31;18.60;54.50
76293;DHT22;65101;51.140;4.088;2022-11-21T03:11:56;18.60;54.80
76293;DHT22;65101;51.140;4.088;2022-11-21T03:14:22;18.60;54.50
76293;DHT22;65101;51.140;4.088;2022-11-21T03:16:48;18.50;54.50
76293;DHT22;65101;51.140;4.088;2022-11-21T03:19:14;18.50;54.40
76293;DHT22;65101;51.140;4.088;2022-11-21T03:21:39;18.50;54.60
76293;DHT22;65101;51.140;4.088;2022-11-21T03:24:05;18.50;54.60
76293;DHT22;65101;51.140;4.088;2022-11-21T03:26:31;18.50;54.30
76293;DHT22;65101;51.140;4.088;2022-11-21T03:28:57;18.50;54.40
76293;DHT22;65101;51.140;4.088;2022-11-21T03:31:22;18.50;54.30
76293;DHT22;65101;51.140;4.088;2022-11-21T03:33:48;18.40;55.20
76293;DHT22;65101;51.140;4.088;2022-11-21T03:36:14;18.40;54.60
76293;DHT22;65101;51.140;4.088;2022-11-21T03:38:40;18.40;54.80
76293;DHT22;65101;51.140;4.088;2022-11-21T03:41:05;18.40;54.50
76293;DHT22;65101;51.140;4.088;2022-11-21T03:43:51;18.40;54.60
76293;DHT22;65101;51.140;4.088;2022-11-21T03:46:17;18.40;54.80
76293;DHT22;65101;51.140;4.088;2022-11-21T03:48:42;18.40;54.30
76293;DHT22;65101;51.140;4.088;2022-11-21T03:51:08;18.40;54.30
76293;DHT22;65101;51.140;4.088;2022-11-21T03:53:34;18.40;54.30
76293;DHT22;65101;51.140;4.088;2022-11-21T03:55:59;18.40;54.20
76293;DHT22;65101;51.140;4.088;2022-11-21T03:58:25;18.40;54.70
76293;DHT22;65101;51.140;4.088;2022-11-21T04:00:51;18.40;54.20
76293;DHT22;65101;51.140;4.088;2022-11-21T04:03:16;18.30;55.10
76293;DHT22;65101;51.140;4.088;2022-11-21T04:05:43;18.40;54.50
76293;DHT22;65101;51.140;4.088;2022-11-21T04:08:09;18.30;54.20
76293;DHT22;65101;51.140;4.088;2022-11-21T04:10:35;18.30;54.80
76293;DHT22;65101;51.140;4.088;2022-11-21T04:13:00;18.30;54.80
76293;DHT22;65101;51.140;4.088;2022-11-21T04:15:26;18.30;54.80
76293;DHT22;65101;51.140;4.088;2022-11-21T04:17:52;18.30;54.80
76293;DHT22;65101;51.140;4.088;2022-11-21T04:20:17;18.30;54.60
76293;DHT22;65101;51.140;4.088;2022-11-21T04:22:43;18.30;54.40
76293;DHT22;65101;51.140;4.088;2022-11-21T04:25:09;18.20;54.80
76293;DHT22;65101;51.140;4.088;2022-11-21T04:27:34;18.30;54.40
76293;DHT22;65101;51.140;4.088;2022-11-21T04:30:00;18.20;54.70
76293;DHT22;65101;51.140;4.088;2022-11-21T04:32:26;18.30;55.30
76293;DHT22;65101;51.140;4.088;2022-11-21T04:34:52;18.30;54.60
76293;DHT22;65101;51.140;4.088;2022-11-21T04:37:18;18.20;54.80
76293;DHT22;65101;51.140;4.088;2022-11-21T04:39:43;18.20;53.80
76293;DHT22;65101;51.140;4.088;2022-11-21T04:42:09;18.20;54.50
76293;DHT22;65101;51.140;4.088;2022-11-21T04:44:35;18.20;54.70
76293;DHT22;65101;51.140;4.088;2022-11-21T04:47:00;18.20;54.50
76293;DHT22;65101;51.140;4.088;2022-11-21T04:49:26;18.20;54.20
76293;DHT22;65101;51.140;4.088;2022-11-21T04:51:52;18.20;54.50
76293;DHT22;65101;51.140;4.088;2022-11-21T04:54:17;18.10;54.80
76293;DHT22;65101;51.140;4.088;2022-11-21T04:56:43;18.20;54.90
76293;DHT22;65101;51.140;4.088;2022-11-21T04:59:08;18.20;54.20
76293;DHT22;65101;51.140;4.088;2022-11-21T05:01:36;18.10;54.40
76293;DHT22;65101;51.140;4.088;2022-11-21T05:04:02;18.10;54.40
76293;DHT22;65101;51.140;4.088;2022-11-21T05:06:28;18.10;54.80
76293;DHT22;65101;51.140;4.088;2022-11-21T05:08:53;18.10;54.70
76293;DHT22;65101;51.140;4.088;2022-11-21T05:11:19;18.10;53.90
76293;DHT22;65101;51.140;4.088;2022-11-21T05:14:03;18.10;54.00
76293;DHT22;65101;51.140;4.088;2022-11-21T05:16:30;18.10;54.70
76293;DHT22;65101;51.140;4.088;2022-11-21T05:18:56;18.00;54.60
76293;DHT22;65101;51.140;4.088;2022-11-21T05:21:22;18.10;54.80
76293;DHT22;65101;51.140;4.088;2022-11-21T05:23:47;18.10;54.80
76293;DHT22;65101;51.140;4.088;2022-11-21T05:26:13;18.00;54.60
76293;DHT22;65101;51.140;4.088;2022-11-21T05:28:39;18.00;54.50
76293;DHT22;65101;51.140;4.088;2022-11-21T05:31:04;18.00;53.70
76293;DHT22;65101;51.140;4.088;2022-11-21T05:33:30;18.00;54.20
76293;DHT22;65101;51.140;4.088;2022-11-21T05:35:56;18.00;54.40
76293;DHT22;65101;51.140;4.088;2022-11-21T05:38:21;18.00;55.10
76293;DHT22;65101;51.140;4.088;2022-11-21T05:40:47;18.00;54.40
76293;DHT22;65101;51.140;4.088;2022-11-21T05:43:13;18.00;54.40
76293;DHT22;65101;51.140;4.088;2022-11-21T05:45:57;18.00;54.80
76293;DHT22;65101;51.140;4.088;2022-11-21T05:48:23;17.90;54.20
76293;DHT22;65101;51.140;4.088;2022-11-21T05:50:49;18.00;54.40
76293;DHT22;65101;51.140;4.088;2022-11-21T05:53:15;18.00;54.60
76293;DHT22;65101;51.140;4.088;2022-11-21T05:55:41;17.90;54.60
76293;DHT22;65101;51.140;4.088;2022-11-21T05:58:06;17.90;54.80
76293;DHT22;65101;51.140;4.088;2022-11-21T06:00:33;17.90;54.10
76293;DHT22;65101;51.140;4.088;2022-11-21T06:02:59;18.00;54.80
76293;DHT22;65101;51.140;4.088;2022-11-21T06:05:43;17.90;54.50
76293;DHT22;65101;51.140;4.088;2022-11-21T06:08:09;17.90;54.60
76293;DHT22;65101;51.140;4.088;2022-11-21T06:10:35;17.90;54.50
76293;DHT22;65101;51.140;4.088;2022-11-21T06:13:01;17.90;53.80
76293;DHT22;65101;51.140;4.088;2022-11-21T06:15:27;17.80;54.80
76293;DHT22;65101;51.140;4.088;2022-11-21T06:17:53;17.80;54.40
76293;DHT22;65101;51.140;4.088;2022-11-21T06:20:19;17.80;55.00
76293;DHT22;65101;51.140;4.088;2022-11-21T06:22:44;17.80;54.40
76293;DHT22;65101;51.140;4.088;2022-11-21T06:25:10;17.80;54.60
76293;DHT22;65101;51.140;4.088;2022-11-21T06:27:36;17.80;54.30
76293;DHT22;65101;51.140;4.088;2022-11-21T06:30:01;17.80;54.40
76293;DHT22;65101;51.140;4.088;2022-11-21T06:32:27;17.80;54.40
76293;DHT22;65101;51.140;4.088;2022-11-21T06:34:53;17.80;54.50
76293;DHT22;65101;51.140;4.088;2022-11-21T06:37:18;17.80;54.00
76293;DHT22;65101;51.140;4.088;2022-11-21T06:39:44;17.70;54.30
76293;DHT22;65101;51.140;4.088;2022-11-21T06:42:10;17.80;54.70
76293;DHT22;65101;51.140;4.088;2022-11-21T06:44:35;17.80;54.50
76293;DHT22;65101;51.140;4.088;2022-11-21T06:47:01;17.70;54.30
76293;DHT22;65101;51.140;4.088;2022-11-21T06:49:26;17.70;54.50
76293;DHT22;65101;51.140;4.088;2022-11-21T06:51:52;17.70;54.00
76293;DHT22;65101;51.140;4.088;2022-11-21T06:54:18;17.70;54.70
76293;DHT22;65101;51.140;4.088;2022-11-21T06:56:43;17.70;54.40
76293;DHT22;65101;51.140;4.088;2022-11-21T06:59:09;17.70;54.20
76293;DHT22;65101;51.140;4.088;2022-11-21T07:01:35;17.70;54.30
76293;DHT22;65101;51.140;4.088;2022-11-21T07:04:00;17.60;54.50
76293;DHT22;65101;51.140;4.088;2022-11-21T07:06:26;17.60;54.50
76293;DHT22;65101;51.140;4.088;2022-11-21T07:08:53;17.70;54.20
76293;DHT22;65101;51.140;4.088;2022-11-21T07:11:19;17.70;53.60
76293;DHT22;65101;51.140;4.088;2022-11-21T07:13:44;17.70;54.30
76293;DHT22;65101;51.140;4.088;2022-11-21T07:16:11;17.60;53.50
76293;DHT22;65101;51.140;4.088;2022-11-21T07:18:40;17.60;54.10
76293;DHT22;65101;51.140;4.088;2022-11-21T07:21:07;17.60;54.10
76293;DHT22;65101;51.140;4.088;2022-11-21T07:23:33;17.60;54.90
76293;DHT22;65101;51.140;4.088;2022-11-21T07:26:00;17.60;53.90
76293;DHT22;65101;51.140;4.088;2022-11-21T07:28:27;17.60;53.70
76293;DHT22;65101;51.140;4.088;2022-11-21T07:30:57;17.60;54.60
76293;DHT22;65101;51.140;4.088;2022-11-21T07:33:23;17.60;54.50
76293;DHT22;65101;51.140;4.088;2022-11-21T07:35:49;17.60;54.30
76293;DHT22;65101;51.140;4.088;2022-11-21T07:38:15;17.60;54.70
76293;DHT22;65101;51.140;4.088;2022-11-21T07:40:40;17.60;54.80
76293;DHT22;65101;51.140;4.088;2022-11-21T07:43:06;17.60;54.60
76293;DHT22;65101;51.140;4.088;2022-11-21T07:45:33;17.60;54.30
76293;DHT22;65101;51.140;4.088;2022-11-21T07:48:00;17.70;55.30
76293;DHT22;65101;51.140;4.088;2022-11-21T07:50:27;17.80;55.20
76293;DHT22;65101;51.140;4.088;2022-11-21T07:53:00;17.90;54.70
76293;DHT22;65101;51.140;4.088;2022-11-21T07:55:26;18.10;54.30
76293;DHT22;65101;51.140;4.088;2022-11-21T07:58:14;18.20;54.80
76293;DHT22;65101;51.140;4.088;2022-11-21T08:00:41;18.40;54.00
76293;DHT22;65101;51.140;4.088;2022-11-21T08:03:07;18.60;54.10
76293;DHT22;65101;51.140;4.088;2022-11-21T08:05:37;18.80;53.90
76293;DHT22;65101;51.140;4.088;2022-11-21T08:08:03;19.10;53.30
76293;DHT22;65101;51.140;4.088;2022-11-21T08:10:30;19.30;52.90
76293;DHT22;65101;51.140;4.088;2022-11-21T08:12:55;19.60;52.40
76293;DHT22;65101;51.140;4.088;2022-11-21T08:15:21;19.80;51.70
76293;DHT22;65101;51.140;4.088;2022-11-21T08:17:47;20.10;51.30
76293;DHT22;65101;51.140;4.088;2022-11-21T08:20:12;20.30;50.60
76293;DHT22;65101;51.140;4.088;2022-11-21T08:22:39;20.50;50.10
76293;DHT22;65101;51.140;4.088;2022-11-21T08:25:06;20.70;49.60
76293;DHT22;65101;51.140;4.088;2022-11-21T08:27:32;20.90;49.50
76293;DHT22;65101;51.140;4.088;2022-11-21T08:29:58;21.00;49.20
76293;DHT22;65101;51.140;4.088;2022-11-21T08:32:23;21.10;48.90
76293;DHT22;65101;51.140;4.088;2022-11-21T08:34:49;21.20;48.70
76293;DHT22;65101;51.140;4.088;2022-11-21T08:37:15;21.30;48.70
76293;DHT22;65101;51.140;4.088;2022-11-21T08:39:40;21.30;48.10
76293;DHT22;65101;51.140;4.088;2022-11-21T08:42:06;21.40;48.20
76293;DHT22;65101;51.140;4.088;2022-11-21T08:44:33;21.40;47.90
76293;DHT22;65101;51.140;4.088;2022-11-21T08:46:59;21.50;47.90
76293;DHT22;65101;51.140;4.088;2022-11-21T08:49:25;21.50;47.90
76293;DHT22;65101;51.140;4.088;2022-11-21T08:51:51;21.60;47.80
76293;DHT22;65101;51.140;4.088;2022-11-21T08:54:22;21.60;48.00
76293;DHT22;65101;51.140;4.088;2022-11-21T08:56:49;21.60;48.10
76293;DHT22;65101;51.140;4.088;2022-11-21T08:59:15;21.70;48.00
76293;DHT22;65101;51.140;4.088;2022-11-21T09:01:42;21.70;48.20
76293;DHT22;65101;51.140;4.088;2022-11-21T09:04:08;21.70;48.30
76293;DHT22;65101;51.140;4.088;2022-11-21T09:06:34;21.70;48.40
76293;DHT22;65101;51.140;4.088;2022-11-21T09:09:00;21.80;48.40
76293;DHT22;65101;51.140;4.088;2022-11-21T09:11:26;21.80;48.40
76293;DHT22;65101;51.140;4.088;2022-11-21T09:13:53;21.80;48.60
76293;DHT22;65101;51.140;4.088;2022-11-21T09:16:37;21.90;48.40
76293;DHT22;65101;51.140;4.088;2022-11-21T09:19:22;21.90;48.60
76293;DHT22;65101;51.140;4.088;2022-11-21T09:21:49;22.00;48.50
76293;DHT22;65101;51.140;4.088;2022-11-21T09:24:15;22.00;48.30
76293;DHT22;65101;51.140;4.088;2022-11-21T09:26:41;22.00;48.40
76293;DHT22;65101;51.140;4.088;2022-11-21T09:29:06;22.10;48.10
76293;DHT22;65101;51.140;4.088;2022-11-21T09:31:36;22.10;48.10
76293;DHT22;65101;51.140;4.088;2022-11-21T09:34:01;22.20;48.10
76293;DHT22;65101;51.140;4.088;2022-11-21T09:36:27;22.20;47.90
76293;DHT22;65101;51.140;4.088;2022-11-21T09:38:53;22.30;47.90
76293;DHT22;65101;51.140;4.088;2022-11-21T09:41:44;22.30;47.80
76293;DHT22;65101;51.140;4.088;2022-11-21T09:49:42;22.40;47.80
76293;DHT22;65101;51.140;4.088;2022-11-21T09:52:11;22.40;47.70
76293;DHT22;65101;51.140;4.088;2022-11-21T09:54:46;22.40;47.80
76293;DHT22;65101;51.140;4.088;2022-11-21T09:57:14;22.40;47.60
76293;DHT22;65101;51.140;4.088;2022-11-21T09:59:42;22.40;47.60
76293;DHT22;65101;51.140;4.088;2022-11-21T10:02:20;22.50;47.70
76293;DHT22;65101;51.140;4.088;2022-11-21T10:04:48;22.50;47.60
76293;DHT22;65101;51.140;4.088;2022-11-21T10:07:30;22.60;47.80
76293;DHT22;65101;51.140;4.088;2022-11-21T10:10:15;22.60;47.80
76293;DHT22;65101;51.140;4.088;2022-11-21T10:18:44;22.70;47.80
76293;DHT22;65101;51.140;4.088;2022-11-21T10:23:57;22.70;47.50
76293;DHT22;65101;51.140;4.088;2022-11-21T10:26:52;22.70;47.80
76293;DHT22;65101;51.140;4.088;2022-11-21T10:29:32;22.70;47.60
76293;DHT22;65101;51.140;4.088;2022-11-21T10:32:23;22.80;47.70
76293;DHT22;65101;51.140;4.088;2022-11-21T10:34:54;22.80;47.60
76293;DHT22;65101;51.140;4.088;2022-11-21T10:37:38;22.90;47.60
76293;DHT22;65101;51.140;4.088;2022-11-21T10:42:44;22.90;47.60
76293;DHT22;65101;51.140;4.088;2022-11-21T10:45:12;22.80;47.80
76293;DHT22;65101;51.140;4.088;2022-11-21T10:47:42;22.80;47.90
76293;DHT22;65101;51.140;4.088;2022-11-21T10:52:43;22.90;47.80
76293;DHT22;65101;51.140;4.088;2022-11-21T10:55:11;22.90;48.00
76293;DHT22;65101;51.140;4.088;2022-11-21T11:05:20;23.00;47.40
76293;DHT22;65101;51.140;4.088;2022-11-21T11:08:09;23.00;44.60
76293;DHT22;65101;51.140;4.088;2022-11-21T11:10:45;22.90;44.00
76293;DHT22;65101;51.140;4.088;2022-11-21T11:13:24;22.80;44.50
76293;DHT22;65101;51.140;4.088;2022-11-21T11:18:38;22.60;47.90
76293;DHT22;65101;51.140;4.088;2022-11-21T11:21:22;22.50;48.20
76293;DHT22;65101;51.140;4.088;2022-11-21T11:23:51;22.60;47.90
76293;DHT22;65101;51.140;4.088;2022-11-21T11:28:47;22.80;47.70
76293;DHT22;65101;51.140;4.088;2022-11-21T11:31:13;22.80;48.00
76293;DHT22;65101;51.140;4.088;2022-11-21T11:36:35;23.00;45.70
76293;DHT22;65101;51.140;4.088;2022-11-21T11:39:15;23.00;43.90
76293;DHT22;65101;51.140;4.088;2022-11-21T11:47:33;22.80;47.80
76293;DHT22;65101;51.140;4.088;2022-11-21T11:50:04;22.80;47.80
76293;DHT22;65101;51.140;4.088;2022-11-21T11:55:21;22.90;47.90
76293;DHT22;65101;51.140;4.088;2022-11-21T11:57:49;22.90;47.60
76293;DHT22;65101;51.140;4.088;2022-11-21T12:03:12;22.90;47.60
76293;DHT22;65101;51.140;4.088;2022-11-21T12:05:55;22.90;47.80
76293;DHT22;65101;51.140;4.088;2022-11-21T12:08:42;22.90;47.90
76293;DHT22;65101;51.140;4.088;2022-11-21T12:11:17;22.90;47.80
76293;DHT22;65101;51.140;4.088;2022-11-21T12:15:02;22.90;47.70
76293;DHT22;65101;51.140;4.088;2022-11-21T12:20:36;23.00;47.20
76293;DHT22;65101;51.140;4.088;2022-11-21T12:23:08;23.00;48.00
76293;DHT22;65101;51.140;4.088;2022-11-21T12:25:39;22.90;47.60
76293;DHT22;65101;51.140;4.088;2022-11-21T12:28:20;22.90;47.70
76293;DHT22;65101;51.140;4.088;2022-11-21T12:31:08;22.90;48.00
76293;DHT22;65101;51.140;4.088;2022-11-21T12:33:48;22.90;48.20
76293;DHT22;65101;51.140;4.088;2022-11-21T12:36:34;22.90;47.80
76293;DHT22;65101;51.140;4.088;2022-11-21T12:39:16;22.90;48.50
76293;DHT22;65101;51.140;4.088;2022-11-21T12:42:10;22.90;48.50
76293;DHT22;65101;51.140;4.088;2022-11-21T12:45:03;22.80;48.60
76293;DHT22;65101;51.140;4.088;2022-11-21T12:47:56;22.80;48.70
76293;DHT22;65101;51.140;4.088;2022-11-21T12:54:00;22.20;46.50
76293;DHT22;65101;51.140;4.088;2022-11-21T13:05:04;22.00;49.20
76293;DHT22;65101;51.140;4.088;2022-11-21T13:07:34;21.80;49.20
76293;DHT22;65101;51.140;4.088;2022-11-21T13:10:02;21.70;49.40
76293;DHT22;65101;51.140;4.088;2022-11-21T13:12:49;21.70;49.80
76293;DHT22;65101;51.140;4.088;2022-11-21T13:15:26;21.90;49.60
76293;DHT22;65101;51.140;4.088;2022-11-21T13:17:54;21.80;49.50
76293;DHT22;65101;51.140;4.088;2022-11-21T13:20:39;21.70;49.90
76293;DHT22;65101;51.140;4.088;2022-11-21T13:25:50;21.70;50.40
76293;DHT22;65101;51.140;4.088;2022-11-21T13:30:53;21.50;50.80
76293;DHT22;65101;51.140;4.088;2022-11-21T13:36:09;21.50;51.10
76293;DHT22;65101;51.140;4.088;2022-11-21T13:49:40;21.10;51.80
76293;DHT22;65101;51.140;4.088;2022-11-21T14:03:07;21.10;52.10
76293;DHT22;65101;51.140;4.088;2022-11-21T14:08:41;21.10;52.00
76293;DHT22;65101;51.140;4.088;2022-11-21T14:11:28;21.10;51.90
76293;DHT22;65101;51.140;4.088;2022-11-21T14:13:56;21.20;51.80
76293;DHT22;65101;51.140;4.088;2022-11-21T14:18:53;21.20;51.80
76293;DHT22;65101;51.140;4.088;2022-11-21T14:21:25;21.10;51.90
76293;DHT22;65101;51.140;4.088;2022-11-21T14:23:55;21.10;51.90
76293;DHT22;65101;51.140;4.088;2022-11-21T14:26:21;21.10;52.00
76293;DHT22;65101;51.140;4.088;2022-11-21T14:28:49;21.00;52.10
76293;DHT22;65101;51.140;4.088;2022-11-21T14:31:15;20.90;52.40
76293;DHT22;65101;51.140;4.088;2022-11-21T14:33:41;20.90;52.50
76293;DHT22;65101;51.140;4.088;2022-11-21T14:36:14;20.90;52.40
76293;DHT22;65101;51.140;4.088;2022-11-21T14:46:27;20.90;51.70
76293;DHT22;65101;51.140;4.088;2022-11-21T14:48:53;21.00;51.70
76293;DHT22;65101;51.140;4.088;2022-11-21T14:51:26;21.00;51.60
76293;DHT22;65101;51.140;4.088;2022-11-21T14:53:55;20.90;52.20
76293;DHT22;65101;51.140;4.088;2022-11-21T14:56:22;20.90;52.20
76293;DHT22;65101;51.140;4.088;2022-11-21T14:58:53;20.80;52.20
76293;DHT22;65101;51.140;4.088;2022-11-21T15:01:24;20.90;51.30
76293;DHT22;65101;51.140;4.088;2022-11-21T15:04:03;20.90;51.90
76293;DHT22;65101;51.140;4.088;2022-11-21T15:06:30;20.90;51.10
76293;DHT22;65101;51.140;4.088;2022-11-21T15:09:04;20.90;51.60
76293;DHT22;65101;51.140;4.088;2022-11-21T15:11:50;20.80;51.90
76293;DHT22;65101;51.140;4.088;2022-11-21T15:17:23;20.80;50.50
76293;DHT22;65101;51.140;4.088;2022-11-21T15:20:17;20.80;52.10
76293;DHT22;65101;51.140;4.088;2022-11-21T15:22:44;20.70;51.30
76293;DHT22;65101;51.140;4.088;2022-11-21T15:25:18;20.70;52.10
76293;DHT22;65101;51.140;4.088;2022-11-21T15:28:06;20.70;51.40
76293;DHT22;65101;51.140;4.088;2022-11-21T15:30:35;20.70;51.90
76293;DHT22;65101;51.140;4.088;2022-11-21T15:35:45;20.60;50.70
76293;DHT22;65101;51.140;4.088;2022-11-21T15:38:30;20.50;50.60
76293;DHT22;65101;51.140;4.088;2022-11-21T15:46:17;20.50;51.00
76293;DHT22;65101;51.140;4.088;2022-11-21T15:48:44;20.50;52.00
76293;DHT22;65101;51.140;4.088;2022-11-21T15:51:10;20.50;51.80
76293;DHT22;65101;51.140;4.088;2022-11-21T15:53:37;20.60;51.90
76293;DHT22;65101;51.140;4.088;2022-11-21T15:56:03;20.50;52.20
76293;DHT22;65101;51.140;4.088;2022-11-21T15:58:29;20.50;52.20
76293;DHT22;65101;51.140;4.088;2022-11-21T16:00:55;20.50;51.80
76293;DHT22;65101;51.140;4.088;2022-11-21T16:03:21;20.50;51.90
76293;DHT22;65101;51.140;4.088;2022-11-21T16:05:47;20.50;52.50
76293;DHT22;65101;51.140;4.088;2022-11-21T16:08:12;20.50;52.20
76293;DHT22;65101;51.140;4.088;2022-11-21T16:10:38;20.40;52.50
76293;DHT22;65101;51.140;4.088;2022-11-21T16:13:04;20.40;52.70
76293;DHT22;65101;51.140;4.088;2022-11-21T16:15:29;20.40;52.70
76293;DHT22;65101;51.140;4.088;2022-11-21T16:17:55;20.40;52.40
76293;DHT22;65101;51.140;4.088;2022-11-21T16:20:21;20.40;52.60
76293;DHT22;65101;51.140;4.088;2022-11-21T16:22:46;20.40;52.60
76293;DHT22;65101;51.140;4.088;2022-11-21T16:25:12;20.30;52.70
76293;DHT22;65101;51.140;4.088;2022-11-21T16:27:38;20.30;52.00
76293;DHT22;65101;51.140;4.088;2022-11-21T16:30:04;20.30;52.20
76293;DHT22;65101;51.140;4.088;2022-11-21T16:32:29;20.20;53.00
76293;DHT22;65101;51.140;4.088;2022-11-21T16:34:55;20.20;52.60
76293;DHT22;65101;51.140;4.088;2022-11-21T16:37:22;20.20;52.60
76293;DHT22;65101;51.140;4.088;2022-11-21T16:39:48;20.20;53.50
76293;DHT22;65101;51.140;4.088;2022-11-21T16:42:17;20.10;52.50
76293;DHT22;65101;51.140;4.088;2022-11-21T16:44:43;20.10;54.10
76293;DHT22;65101;51.140;4.088;2022-11-21T16:47:09;20.00;52.80
76293;DHT22;65101;51.140;4.088;2022-11-21T16:49:36;20.00;53.10
76293;DHT22;65101;51.140;4.088;2022-11-21T16:52:08;20.00;53.40
76293;DHT22;65101;51.140;4.088;2022-11-21T16:54:34;19.90;52.60
76293;DHT22;65101;51.140;4.088;2022-11-21T16:56:59;19.90;53.20
76293;DHT22;65101;51.140;4.088;2022-11-21T16:59:25;19.90;52.70
76293;DHT22;65101;51.140;4.088;2022-11-21T17:01:51;19.90;53.70
76293;DHT22;65101;51.140;4.088;2022-11-21T17:04:17;19.80;53.90
76293;DHT22;65101;51.140;4.088;2022-11-21T17:06:43;19.80;53.50
76293;DHT22;65101;51.140;4.088;2022-11-21T17:09:09;19.80;52.80
76293;DHT22;65101;51.140;4.088;2022-11-21T17:11:34;19.70;53.90
76293;DHT22;65101;51.140;4.088;2022-11-21T17:14:03;19.60;53.50
76293;DHT22;65101;51.140;4.088;2022-11-21T17:16:30;19.80;54.20
76293;DHT22;65101;51.140;4.088;2022-11-21T17:18:58;19.90;53.60
76293;DHT22;65101;51.140;4.088;2022-11-21T17:21:25;20.10;54.20
76293;DHT22;65101;51.140;4.088;2022-11-21T17:23:51;20.20;53.60
76293;DHT22;65101;51.140;4.088;2022-11-21T17:26:19;20.30;53.40
76293;DHT22;65101;51.140;4.088;2022-11-21T17:28:56;20.40;53.20
76293;DHT22;65101;51.140;4.088;2022-11-21T17:31:22;20.50;52.40
76293;DHT22;65101;51.140;4.088;2022-11-21T17:33:49;20.60;52.60
76293;DHT22;65101;51.140;4.088;2022-11-21T17:36:20;20.70;52.40
76293;DHT22;65101;51.140;4.088;2022-11-21T17:38:47;20.80;52.30
76293;DHT22;65101;51.140;4.088;2022-11-21T17:41:14;20.90;52.20
76293;DHT22;65101;51.140;4.088;2022-11-21T17:43:41;20.90;51.40
76293;DHT22;65101;51.140;4.088;2022-11-21T17:46:11;21.10;51.50
76293;DHT22;65101;51.140;4.088;2022-11-21T17:48:37;21.10;51.40